createdAt,value
2022-11-29T00:00:25.200Z,12.82
2022-11-29T00:03:17.236Z,12.85
2022-11-29T00:05:45.172Z,12.30
2022-11-29T00:08:13.643Z,12.13
2022-11-29T00:10:41.362Z,11.55
2022-11-29T00:16:25.164Z,12.27
2022-11-29T00:18:53.171Z,12.27
2022-11-29T00:21:26.184Z,13.13
2022-11-29T00:23:59.565Z,11.07
2022-11-29T00:26:27.168Z,14.82
2022-11-29T00:28:55.155Z,13.98
2022-11-29T00:31:26.398Z,13.93
2022-11-29T00:33:53.593Z,12.75
2022-11-29T00:36:26.249Z,13.45
2022-11-29T00:38:53.210Z,11.70
2022-11-29T00:41:26.247Z,14.25
2022-11-29T00:44:20.658Z,13.23
2022-11-29T00:46:49.440Z,12.88
2022-11-29T00:49:17.294Z,14.10
2022-11-29T00:51:50.557Z,13.57
2022-11-29T00:54:19.201Z,15.05
2022-11-29T00:56:47.243Z,14.88
2022-11-29T00:59:15.133Z,13.90
2022-11-29T01:01:43.241Z,14.10
2022-11-29T01:04:11.273Z,14.23
2022-11-29T01:06:39.165Z,13.73
2022-11-29T01:09:31.154Z,14.40
2022-11-29T01:11:59.149Z,13.68
2022-11-29T01:14:27.161Z,14.82
2022-11-29T01:16:59.476Z,13.15
2022-11-29T01:19:32.154Z,14.85
2022-11-29T01:22:05.123Z,14.55
2022-11-29T01:24:33.170Z,14.90
2022-11-29T01:27:01.361Z,14.02
2022-11-29T01:29:29.148Z,14.52
2022-11-29T01:31:57.138Z,12.73
2022-11-29T01:34:25.138Z,13.65
2022-11-29T01:36:53.173Z,13.70
2022-11-29T01:39:21.170Z,14.18
2022-11-29T01:41:49.111Z,15.00
2022-11-29T01:44:17.105Z,15.63
2022-11-29T01:46:47.175Z,14.13
2022-11-29T01:50:05.874Z,14.80
2022-11-29T01:52:33.386Z,12.07
2022-11-29T01:55:04.031Z,10.48
2022-11-29T01:57:33.899Z,14.55
2022-11-29T02:00:08.665Z,15.20
2022-11-29T02:03:03.437Z,16.48
2022-11-29T02:05:55.402Z,15.20
2022-11-29T02:08:33.920Z,15.25
2022-11-29T02:11:21.780Z,16.50
2022-11-29T02:14:06.372Z,14.20
2022-11-29T02:16:36.131Z,15.57
2022-11-29T02:19:24.427Z,14.27
2022-11-29T02:22:48.648Z,16.10
2022-11-29T02:26:09.674Z,15.30
2022-11-29T02:32:13.409Z,14.52
2022-11-29T02:34:51.935Z,14.38
2022-11-29T02:37:40.967Z,13.65
2022-11-29T02:40:51.444Z,15.57
2022-11-29T02:43:29.983Z,13.35
2022-11-29T02:46:21.703Z,15.43
2022-11-29T02:49:10.864Z,14.38
2022-11-29T02:55:09.536Z,16.13
2022-11-29T03:01:22.946Z,15.30
2022-11-29T03:04:07.432Z,16.38
2022-11-29T03:07:03.372Z,16.80
2022-11-29T03:12:52.720Z,15.52
2022-11-29T03:15:49.443Z,17.73
2022-11-29T03:18:31.997Z,16.85
2022-11-29T03:21:17.715Z,15.45
2022-11-29T03:24:19.433Z,15.73
2022-11-29T03:26:59.463Z,14.27
2022-11-29T03:29:59.695Z,14.93
2022-11-29T03:32:29.958Z,17.17
2022-11-29T03:35:04.611Z,16.58
2022-11-29T03:37:58.551Z,15.48
2022-11-29T03:41:01.147Z,16.23
2022-11-29T03:43:55.005Z,14.50
2022-11-29T03:46:37.421Z,16.85
2022-11-29T03:49:34.360Z,17.45
2022-11-29T03:59:14.868Z,15.20
2022-11-29T04:02:21.063Z,16.90
2022-11-29T04:05:26.415Z,16.02
2022-11-29T04:08:06.821Z,16.50
2022-11-29T04:10:37.836Z,15.65
2022-11-29T04:13:10.824Z,15.82
2022-11-29T04:16:12.553Z,17.52
2022-11-29T04:19:19.389Z,17.73
2022-11-29T04:22:07.927Z,15.30
2022-11-29T04:25:13.851Z,17.23
2022-11-29T04:27:53.419Z,16.63
2022-11-29T04:30:56.617Z,15.45
2022-11-29T04:34:07.294Z,15.02
2022-11-29T04:37:06.133Z,16.40
2022-11-29T04:39:45.375Z,16.27
2022-11-29T04:42:28.408Z,16.33
2022-11-29T04:45:32.745Z,14.73
2022-11-29T04:48:42.893Z,16.30
2022-11-29T04:51:50.323Z,15.55
2022-11-29T04:54:22.808Z,18.17
2022-11-29T04:56:58.068Z,16.33
2022-11-29T04:59:35.644Z,17.55
2022-11-29T05:05:58.950Z,17.15
2022-11-29T05:08:36.196Z,16.40
2022-11-29T05:11:18.124Z,18.17
2022-11-29T05:14:34.675Z,17.95
2022-11-29T05:17:24.237Z,16.25
2022-11-29T05:20:19.368Z,16.63
2022-11-29T05:23:11.014Z,16.52
2022-11-29T05:26:05.546Z,15.38
2022-11-29T05:28:54.795Z,18.92
2022-11-29T05:31:56.985Z,19.85
2022-11-29T05:34:44.639Z,16.67
2022-11-29T05:37:18.979Z,17.05
2022-11-29T05:40:36.362Z,13.27
2022-11-29T05:43:27.820Z,17.17
2022-11-29T05:45:57.942Z,18.25
2022-11-29T05:48:28.598Z,17.95
2022-11-29T05:55:13.706Z,17.50
2022-11-29T05:58:27.157Z,15.95
2022-11-29T06:01:17.726Z,18.88
2022-11-29T06:04:02.304Z,16.77
2022-11-29T06:06:56.810Z,18.52
2022-11-29T06:09:32.616Z,15.00
2022-11-29T06:12:16.975Z,19.23
2022-11-29T06:15:11.633Z,19.13
2022-11-29T06:17:55.195Z,17.60
2022-11-29T06:20:44.594Z,18.35
2022-11-29T06:29:55.945Z,16.58
2022-11-29T06:32:44.020Z,17.83
2022-11-29T06:35:35.606Z,18.58
2022-11-29T06:38:34.451Z,19.40
2022-11-29T06:41:06.668Z,16.42
2022-11-29T06:43:39.512Z,19.30
2022-11-29T06:46:32.823Z,17.30
2022-11-29T06:49:34.583Z,20.13
2022-11-29T06:52:24.850Z,18.40
2022-11-29T06:55:14.157Z,17.45
2022-11-29T06:57:44.084Z,17.55
2022-11-29T07:00:31.626Z,19.00
2022-11-29T07:03:29.021Z,20.10
2022-11-29T07:05:58.063Z,19.15
2022-11-29T07:08:26.220Z,19.65
2022-11-29T07:11:00.730Z,17.83
2022-11-29T07:13:29.472Z,19.65
2022-11-29T07:19:16.155Z,19.38
2022-11-29T07:22:01.606Z,19.88
2022-11-29T07:24:45.763Z,18.00
2022-11-29T07:27:50.111Z,18.23
2022-11-29T07:30:21.368Z,18.58
2022-11-29T07:33:11.247Z,20.15
2022-11-29T07:36:00.439Z,18.63
2022-11-29T07:38:36.386Z,17.27
2022-11-29T07:41:29.907Z,19.95
2022-11-29T07:44:14.328Z,17.63
2022-11-29T07:46:41.240Z,17.67
2022-11-29T07:49:11.885Z,19.65
2022-11-29T07:52:10.179Z,14.98
2022-11-29T07:54:37.204Z,17.63
2022-11-29T07:59:57.194Z,17.08
2022-11-29T08:02:29.730Z,18.38
2022-11-29T08:04:57.618Z,20.38
2022-11-29T08:07:25.360Z,19.92
2022-11-29T08:09:58.540Z,18.13
2022-11-29T08:12:25.163Z,17.73
2022-11-29T08:14:53.148Z,18.95
2022-11-29T08:17:21.108Z,15.18
2022-11-29T08:19:49.125Z,19.75
2022-11-29T08:22:41.245Z,18.40
2022-11-29T08:25:35.151Z,16.75
2022-11-29T08:28:04.820Z,18.63
2022-11-29T08:30:33.161Z,17.50
2022-11-29T08:33:01.432Z,18.88
2022-11-29T08:35:29.816Z,19.52
2022-11-29T08:41:39.187Z,13.82
2022-11-29T08:44:11.157Z,18.35
2022-11-29T08:46:57.698Z,18.45
2022-11-29T08:49:25.363Z,19.50
2022-11-29T08:52:13.665Z,18.38
2022-11-29T08:57:40.203Z,20.95
2022-11-29T09:00:10.024Z,19.50
2022-11-29T09:02:37.466Z,19.42
2022-11-29T09:05:06.791Z,16.98
2022-11-29T09:07:40.291Z,16.50
2022-11-29T09:10:33.120Z,18.25
2022-11-29T09:13:01.658Z,19.30
2022-11-29T09:15:29.267Z,20.25
2022-11-29T09:17:57.551Z,19.25
2022-11-29T09:20:25.351Z,18.85
2022-11-29T09:22:53.251Z,18.85
2022-11-29T09:25:21.127Z,19.27
2022-11-29T09:27:49.115Z,19.38
2022-11-29T09:30:23.849Z,18.27
2022-11-29T09:32:51.225Z,20.77
2022-11-29T09:35:19.132Z,19.73
2022-11-29T09:37:47.141Z,19.30
2022-11-29T09:40:23.220Z,20.17
2022-11-29T09:43:28.666Z,20.10
2022-11-29T09:46:16.042Z,20.20
2022-11-29T09:49:16.064Z,17.98
2022-11-29T09:51:48.982Z,18.95
2022-11-29T09:54:40.287Z,19.00
2022-11-29T09:57:10.755Z,18.02
2022-11-29T09:59:44.443Z,17.55
2022-11-29T10:02:21.135Z,20.17
2022-11-29T10:05:01.917Z,19.38
2022-11-29T10:07:43.554Z,18.67
2022-11-29T10:10:27.658Z,19.95
2022-11-29T10:13:15.696Z,18.63
2022-11-29T10:15:46.127Z,19.80
2022-11-29T10:18:27.025Z,18.13
2022-11-29T10:20:58.536Z,21.52
2022-11-29T10:23:42.074Z,16.88
2022-11-29T10:26:11.865Z,21.52
2022-11-29T10:28:44.923Z,19.08
2022-11-29T10:31:16.134Z,19.15
2022-11-29T10:33:44.398Z,18.48
2022-11-29T10:36:38.991Z,19.30
2022-11-29T10:39:49.572Z,20.98
2022-11-29T10:42:41.737Z,21.30
2022-11-29T10:45:45.448Z,21.17
2022-11-29T10:51:37.353Z,20.33
2022-11-29T10:54:33.146Z,20.15
2022-11-29T10:57:01.878Z,19.00
2022-11-29T10:59:31.018Z,19.83
2022-11-29T11:02:24.300Z,20.70
2022-11-29T11:04:51.183Z,14.20
2022-11-29T11:07:35.926Z,15.15
2022-11-29T11:10:26.480Z,19.80
2022-11-29T11:13:05.376Z,20.98
2022-11-29T11:15:33.789Z,19.88
2022-11-29T11:18:04.925Z,19.73
2022-11-29T11:20:40.956Z,19.88
2022-11-29T11:23:31.377Z,20.88
2022-11-29T11:26:11.007Z,20.10
2022-11-29T11:28:53.854Z,18.23
2022-11-29T11:31:40.785Z,21.58
2022-11-29T11:34:34.583Z,19.88
2022-11-29T11:37:20.383Z,20.95
2022-11-29T11:39:50.413Z,21.88
2022-11-29T11:42:42.464Z,13.52
2022-11-29T11:45:38.573Z,16.90
2022-11-29T11:48:15.446Z,19.80
2022-11-29T11:50:53.860Z,17.95
2022-11-29T11:56:16.225Z,18.85
2022-11-29T11:58:43.108Z,20.92
2022-11-29T12:01:25.245Z,20.67
2022-11-29T12:04:01.629Z,22.08
2022-11-29T12:06:56.191Z,22.50
2022-11-29T12:09:35.293Z,22.15
2022-11-29T12:12:25.627Z,19.67
2022-11-29T12:14:58.121Z,18.38
2022-11-29T12:17:36.697Z,21.50
2022-11-29T12:20:14.150Z,20.92
2022-11-29T12:22:58.218Z,22.65
2022-11-29T12:25:32.006Z,20.30
2022-11-29T12:27:59.212Z,21.63
2022-11-29T12:30:32.175Z,22.23
2022-11-29T12:33:13.773Z,22.00
2022-11-29T12:36:12.103Z,19.88
2022-11-29T12:39:07.793Z,22.38
2022-11-29T12:44:50.323Z,20.73
2022-11-29T12:47:41.892Z,21.83
2022-11-29T12:50:17.367Z,22.73
2022-11-29T12:53:00.217Z,22.13
2022-11-29T12:55:48.393Z,20.90
2022-11-29T12:58:32.766Z,21.45
2022-11-29T13:01:24.595Z,21.60
2022-11-29T13:04:29.163Z,21.20
2022-11-29T13:07:26.609Z,19.85
2022-11-29T13:10:04.231Z,18.42
2022-11-29T13:13:09.654Z,20.83
2022-11-29T13:15:44.312Z,20.75
2022-11-29T13:18:44.951Z,22.10
2022-11-29T13:21:50.283Z,19.40
2022-11-29T13:24:25.501Z,19.88
2022-11-29T13:27:06.548Z,19.27
2022-11-29T13:30:00.862Z,21.48
2022-11-29T13:32:40.342Z,20.75
2022-11-29T13:35:41.222Z,20.90
2022-11-29T13:38:27.852Z,21.52
2022-11-29T13:41:27.816Z,21.85
2022-11-29T13:44:23.290Z,20.38
2022-11-29T13:47:08.431Z,22.08
2022-11-29T13:50:02.793Z,19.85
2022-11-29T13:53:04.445Z,21.13
2022-11-29T13:58:30.538Z,18.10
2022-11-29T14:01:10.400Z,21.75
2022-11-29T14:03:43.813Z,19.42
2022-11-29T14:06:40.425Z,21.77
2022-11-29T14:09:27.443Z,22.00
2022-11-29T14:12:03.064Z,21.63
2022-11-29T14:14:54.606Z,22.52
2022-11-29T14:17:33.864Z,19.83
2022-11-29T14:20:39.183Z,23.40
2022-11-29T14:23:09.922Z,22.02
2022-11-29T14:25:58.655Z,23.25
2022-11-29T14:28:28.886Z,21.52
2022-11-29T14:34:08.806Z,23.15
2022-11-29T14:36:45.648Z,24.17
2022-11-29T14:39:41.151Z,23.73
2022-11-29T14:42:23.034Z,24.10
2022-11-29T14:44:54.291Z,22.20
2022-11-29T14:47:31.371Z,25.67
2022-11-29T14:50:03.293Z,23.77
2022-11-29T14:52:35.795Z,26.77
2022-11-29T14:55:05.649Z,23.13
2022-11-29T14:58:01.227Z,23.98
2022-11-29T15:00:47.396Z,22.85
2022-11-29T15:06:26.837Z,21.88
2022-11-29T15:09:05.832Z,23.90
2022-11-29T15:12:01.595Z,24.33
2022-11-29T15:14:48.496Z,23.00
2022-11-29T15:17:36.422Z,22.20
2022-11-29T15:20:45.023Z,20.42
2022-11-29T15:23:18.320Z,23.13
2022-11-29T15:28:43.379Z,23.88
2022-11-29T15:31:15.038Z,21.88
2022-11-29T15:33:45.907Z,23.25
2022-11-29T15:36:19.443Z,24.38
2022-11-29T15:38:53.332Z,25.13
2022-11-29T15:41:22.875Z,21.83
2022-11-29T15:44:03.015Z,26.40
2022-11-29T15:46:34.048Z,22.25
2022-11-29T15:49:18.048Z,22.90
2022-11-29T15:51:50.159Z,20.75
2022-11-29T15:54:39.137Z,22.17
2022-11-29T15:57:18.739Z,22.52
2022-11-29T16:00:23.809Z,20.92
2022-11-29T16:06:01.064Z,22.00
2022-11-29T16:08:34.430Z,21.15
2022-11-29T16:11:01.451Z,22.55
2022-11-29T16:13:45.436Z,23.25
2022-11-29T16:16:19.474Z,24.17
2022-11-29T16:18:53.581Z,24.17
2022-11-29T16:21:31.107Z,22.85
2022-11-29T16:24:12.253Z,23.25
2022-11-29T16:26:43.295Z,21.63
2022-11-29T16:29:30.890Z,20.02
2022-11-29T16:31:59.432Z,24.38
2022-11-29T16:34:31.215Z,23.73
2022-11-29T16:37:08.936Z,25.15
2022-11-29T16:39:43.441Z,20.52
2022-11-29T16:42:14.176Z,22.15
2022-11-29T16:44:46.548Z,20.77
2022-11-29T16:47:21.169Z,23.52
2022-11-29T16:50:01.409Z,24.10
2022-11-29T16:52:38.726Z,20.75
2022-11-29T16:55:07.605Z,23.45
2022-11-29T16:57:35.856Z,22.58
2022-11-29T17:00:10.906Z,22.30
2022-11-29T17:05:31.227Z,23.30
2022-11-29T17:07:59.242Z,21.35
2022-11-29T17:10:28.809Z,22.58
2022-11-29T17:18:42.116Z,22.77
2022-11-29T17:21:23.253Z,23.17
2022-11-29T17:23:52.493Z,23.00
2022-11-29T17:26:20.034Z,22.02
2022-11-29T17:28:49.034Z,22.75
2022-11-29T17:31:22.249Z,23.65
2022-11-29T17:33:49.902Z,23.08
2022-11-29T17:39:11.235Z,23.42
2022-11-29T17:41:39.162Z,23.38
2022-11-29T17:44:07.466Z,21.75
2022-11-29T17:46:36.643Z,21.60
2022-11-29T17:49:13.222Z,25.13
2022-11-29T17:51:56.974Z,22.58
2022-11-29T17:54:25.195Z,23.00
2022-11-29T17:56:59.686Z,23.67
2022-11-29T17:59:27.238Z,23.98
2022-11-29T18:01:55.608Z,23.77
2022-11-29T18:04:23.306Z,23.17
2022-11-29T18:06:51.174Z,21.55
2022-11-29T18:09:24.800Z,23.15
2022-11-29T18:11:57.153Z,24.08
2022-11-29T18:14:28.166Z,23.42
2022-11-29T18:17:01.213Z,25.42
2022-11-29T18:19:29.826Z,22.13
2022-11-29T18:21:57.132Z,24.38
2022-11-29T18:24:29.234Z,25.23
2022-11-29T18:27:21.778Z,24.67
2022-11-29T18:30:15.880Z,21.48
2022-11-29T18:33:09.130Z,23.65
2022-11-29T18:35:37.175Z,22.85
2022-11-29T18:38:20.420Z,24.05
2022-11-29T18:40:47.183Z,21.48
2022-11-29T18:43:16.582Z,22.83
2022-11-29T18:45:49.144Z,23.20
2022-11-29T18:48:22.140Z,24.40
2022-11-29T18:50:49.156Z,23.60
2022-11-29T18:53:17.133Z,22.83
2022-11-29T18:55:45.125Z,24.45
2022-11-29T18:58:13.188Z,25.73
2022-11-29T19:00:41.216Z,25.33
2022-11-29T19:03:13.158Z,25.42
2022-11-29T19:05:50.244Z,24.50
2022-11-29T19:08:23.207Z,23.50
2022-11-29T19:10:51.174Z,25.23
2022-11-29T19:13:44.211Z,24.40
2022-11-29T19:16:15.185Z,24.77
2022-11-29T19:18:56.107Z,24.52
2022-11-29T19:21:24.944Z,26.27
2022-11-29T19:23:58.328Z,25.33
2022-11-29T19:26:27.527Z,26.05
2022-11-29T19:28:55.281Z,23.10
2022-11-29T19:31:47.288Z,23.80
2022-11-29T19:34:15.286Z,23.33
2022-11-29T19:36:44.180Z,23.33
2022-11-29T19:39:15.195Z,24.05
2022-11-29T19:41:45.988Z,25.75
2022-11-29T19:44:13.412Z,23.35
2022-11-29T19:46:46.902Z,24.02
2022-11-29T19:49:15.158Z,24.67
2022-11-29T19:52:12.139Z,21.65
2022-11-29T19:54:39.131Z,23.75
2022-11-29T19:57:07.191Z,24.58
2022-11-29T19:59:35.187Z,24.83
2022-11-29T20:02:32.198Z,22.33
2022-11-29T20:05:04.739Z,18.88
2022-11-29T20:07:33.280Z,24.75
2022-11-29T20:10:06.224Z,27.25
2022-11-29T20:12:33.199Z,24.63
2022-11-29T20:15:01.276Z,25.98
2022-11-29T20:17:29.136Z,25.33
2022-11-29T20:23:13.241Z,26.20
2022-11-29T20:25:41.148Z,25.30
2022-11-29T20:28:09.189Z,26.50
2022-11-29T20:30:37.132Z,23.10
2022-11-29T20:33:05.356Z,25.52
2022-11-29T20:35:33.525Z,23.83
2022-11-29T20:38:40.728Z,24.35
2022-11-29T20:41:17.050Z,24.63
2022-11-29T20:43:59.833Z,26.15
2022-11-29T20:46:28.646Z,25.42
2022-11-29T20:49:01.687Z,25.67
2022-11-29T20:51:41.065Z,24.48
2022-11-29T20:57:03.312Z,23.13
2022-11-29T20:59:31.159Z,23.75
2022-11-29T21:02:01.224Z,23.65
2022-11-29T21:04:34.390Z,25.63
2022-11-29T21:07:01.275Z,24.88
2022-11-29T21:09:29.227Z,24.63
2022-11-29T21:11:57.643Z,25.50
2022-11-29T21:14:25.506Z,24.15
2022-11-29T21:16:53.614Z,21.63
2022-11-29T21:19:27.866Z,26.67
2022-11-29T21:22:14.294Z,24.42
2022-11-29T21:27:52.666Z,25.67
2022-11-29T21:30:23.962Z,25.25
2022-11-29T21:32:52.071Z,22.67
2022-11-29T21:35:19.554Z,24.42
2022-11-29T21:37:47.347Z,22.92
2022-11-29T21:40:15.286Z,22.73
2022-11-29T21:43:07.197Z,24.25
2022-11-29T21:45:35.163Z,24.05
2022-11-29T21:48:03.239Z,23.83
2022-11-29T21:50:31.165Z,24.63
2022-11-29T21:52:59.131Z,25.15
2022-11-29T21:55:31.863Z,19.83
2022-11-29T21:58:05.421Z,23.80
2022-11-29T22:00:37.772Z,24.77
2022-11-29T22:03:05.362Z,22.75
2022-11-29T22:05:33.311Z,25.30
2022-11-29T22:08:01.476Z,23.95
2022-11-29T22:11:03.569Z,22.23
2022-11-29T22:13:31.612Z,24.40
2022-11-29T22:16:07.781Z,23.60
2022-11-29T22:18:36.958Z,18.38
2022-11-29T22:21:07.182Z,26.30
2022-11-29T22:23:39.400Z,24.42
2022-11-29T22:26:07.830Z,22.42
2022-11-29T22:28:35.867Z,23.92
2022-11-29T22:31:05.090Z,25.08
2022-11-29T22:33:33.614Z,21.38
2022-11-29T22:36:05.492Z,23.25
2022-11-29T22:41:32.617Z,21.90
2022-11-29T22:44:07.006Z,23.20
2022-11-29T22:46:39.277Z,22.77
2022-11-29T22:49:07.328Z,22.42
2022-11-29T22:51:37.649Z,25.48
2022-11-29T22:54:08.026Z,22.40
2022-11-29T22:56:43.616Z,22.58
2022-11-29T22:59:11.562Z,20.73
2022-11-29T23:01:40.716Z,23.42
2022-11-29T23:04:15.852Z,24.17
2022-11-29T23:06:45.197Z,23.33
2022-11-29T23:09:21.174Z,21.55
2022-11-29T23:11:54.320Z,20.92
2022-11-29T23:14:23.186Z,23.05
2022-11-29T23:16:52.087Z,23.02
2022-11-29T23:19:19.609Z,22.33
2022-11-29T23:24:42.247Z,21.35
2022-11-29T23:27:09.144Z,22.95
2022-11-29T23:30:06.171Z,23.88
2022-11-29T23:32:33.188Z,22.88
2022-11-29T23:35:01.158Z,21.35
2022-11-29T23:37:34.431Z,23.05
2022-11-29T23:40:01.151Z,22.63
2022-11-29T23:42:29.254Z,21.50
2022-11-29T23:44:57.402Z,22.27
2022-11-29T23:47:25.370Z,21.77
2022-11-29T23:52:45.789Z,21.40
2022-11-29T23:55:14.633Z,24.80
2022-11-29T23:57:43.617Z,24.65
